createdAt,value
2018-01-12T00:02:10.735Z,13.15
2018-01-12T00:04:38.203Z,15.75
2018-01-12T00:07:05.663Z,15.55
2018-01-12T00:09:33.134Z,16.25
2018-01-12T00:12:00.594Z,16.62
2018-01-12T00:14:28.076Z,15.40
2018-01-12T00:16:56.303Z,14.90
2018-01-12T00:19:23.771Z,15.23
2018-01-12T00:21:51.242Z,13.38
2018-01-12T00:24:18.706Z,13.10
2018-01-12T00:26:46.176Z,12.37
2018-01-12T00:29:14.410Z,12.23
2018-01-12T00:31:41.867Z,12.82
2018-01-12T00:34:09.335Z,13.40
2018-01-12T00:36:36.803Z,14.00
2018-01-12T00:39:04.268Z,13.15
2018-01-12T00:41:31.741Z,12.63
2018-01-12T00:43:59.233Z,12.93
2018-01-12T00:46:26.727Z,13.80
2018-01-12T00:48:55.711Z,11.43
2018-01-12T00:51:23.172Z,12.98
2018-01-12T00:53:50.643Z,12.20
2018-01-12T00:56:18.106Z,13.35
2018-01-12T00:58:45.586Z,13.10
2018-01-12T01:01:13.817Z,13.98
2018-01-12T01:03:41.292Z,15.40
2018-01-12T01:06:08.756Z,13.23
2018-01-12T01:08:36.226Z,11.77
2018-01-12T01:11:04.451Z,11.52
2018-01-12T01:13:31.931Z,11.90
2018-01-12T01:15:59.398Z,13.57
2018-01-12T01:18:26.958Z,12.85
2018-01-12T01:20:54.424Z,14.68
2018-01-12T01:23:21.888Z,13.10
2018-01-12T01:25:50.132Z,12.23
2018-01-12T01:28:17.626Z,14.45
2018-01-12T01:30:45.859Z,13.50
2018-01-12T01:33:13.331Z,13.38
2018-01-12T01:35:40.803Z,13.93
2018-01-12T01:38:08.270Z,12.77
2018-01-12T01:40:36.502Z,12.55
2018-01-12T01:43:03.968Z,13.68
2018-01-12T01:45:31.439Z,14.80
2018-01-12T01:47:58.903Z,14.60
2018-01-12T01:50:26.380Z,15.75
2018-01-12T01:52:54.613Z,14.85
2018-01-12T01:55:22.080Z,13.07
2018-01-12T01:57:49.537Z,14.10
2018-01-12T02:00:17.003Z,13.73
2018-01-12T02:02:45.244Z,15.10
2018-01-12T02:05:12.723Z,15.70
2018-01-12T02:07:40.212Z,15.25
2018-01-12T02:10:08.451Z,16.08
2018-01-12T02:12:35.918Z,16.35
2018-01-12T02:15:03.395Z,16.40
2018-01-12T02:17:30.855Z,16.92
2018-01-12T02:19:58.331Z,17.30
2018-01-12T02:22:26.563Z,19.35
2018-01-12T02:24:54.036Z,16.10
2018-01-12T02:27:21.506Z,17.77
2018-01-12T02:29:48.979Z,17.12
2018-01-12T02:32:17.214Z,17.45
2018-01-12T02:34:44.683Z,14.40
2018-01-12T02:37:12.162Z,18.48
2018-01-12T02:39:40.403Z,16.23
2018-01-12T02:42:07.878Z,18.35
2018-01-12T02:44:35.347Z,16.62
2018-01-12T02:47:03.576Z,18.23
2018-01-12T02:49:31.087Z,17.25
2018-01-12T02:51:59.319Z,16.75
2018-01-12T02:54:26.787Z,14.02
2018-01-12T02:56:54.259Z,15.43
2018-01-12T02:59:21.722Z,15.02
2018-01-12T03:01:49.183Z,14.68
2018-01-12T03:04:17.418Z,19.17
2018-01-12T03:06:44.879Z,17.58
2018-01-12T03:09:12.470Z,18.50
2018-01-12T03:11:39.934Z,18.48
2018-01-12T03:14:07.392Z,18.10
2018-01-12T03:16:34.879Z,21.25
2018-01-12T03:19:02.350Z,20.65
2018-01-12T03:21:29.816Z,20.75
2018-01-12T03:23:57.325Z,22.77
2018-01-12T03:26:25.571Z,23.23
2018-01-12T03:28:53.055Z,24.30
2018-01-12T03:31:20.523Z,23.05
2018-01-12T03:33:48.747Z,25.00
2018-01-12T03:36:16.215Z,24.40
2018-01-12T03:38:43.686Z,24.48
2018-01-12T03:41:11.154Z,23.80
2018-01-12T03:43:38.622Z,22.67
2018-01-12T03:46:06.090Z,23.75
2018-01-12T03:48:34.327Z,19.80
2018-01-12T03:51:01.794Z,19.23
2018-01-12T03:53:29.252Z,18.45
2018-01-12T03:55:56.723Z,18.90
2018-01-12T03:58:24.186Z,18.30
2018-01-12T04:00:51.650Z,19.83
2018-01-12T04:03:19.110Z,20.65
2018-01-12T04:05:46.578Z,18.48
2018-01-12T04:08:14.812Z,19.48
2018-01-12T04:10:42.279Z,22.00
2018-01-12T04:13:09.752Z,18.48
2018-01-12T04:15:37.215Z,20.42
2018-01-12T04:18:04.675Z,20.25
2018-01-12T04:20:32.914Z,20.60
2018-01-12T04:23:00.371Z,20.58
2018-01-12T04:25:27.851Z,20.37
2018-01-12T04:27:55.313Z,21.50
2018-01-12T04:30:22.791Z,19.45
2018-01-12T04:32:51.015Z,19.80
2018-01-12T04:35:18.491Z,22.50
2018-01-12T04:37:45.955Z,20.23
2018-01-12T04:40:13.419Z,20.17
2018-01-12T04:42:40.884Z,19.92
2018-01-12T04:45:08.347Z,19.85
2018-01-12T04:47:35.809Z,20.55
2018-01-12T04:50:04.045Z,18.23
2018-01-12T04:52:31.502Z,19.70
2018-01-12T04:54:58.978Z,20.33
2018-01-12T04:57:26.448Z,21.52
2018-01-12T04:59:53.936Z,20.25
2018-01-12T05:02:21.420Z,19.77
2018-01-12T05:04:48.887Z,21.40
2018-01-12T05:07:16.360Z,20.30
2018-01-12T05:09:43.830Z,21.42
2018-01-12T05:12:11.303Z,20.33
2018-01-12T05:14:39.547Z,19.62
2018-01-12T05:17:07.019Z,20.08
2018-01-12T05:19:34.490Z,18.12
2018-01-12T05:22:02.731Z,20.67
2018-01-12T05:24:30.194Z,18.33
2018-01-12T05:26:57.668Z,19.60
2018-01-12T05:29:25.136Z,19.30
2018-01-12T05:31:53.371Z,20.27
2018-01-12T05:34:20.837Z,20.88
2018-01-12T05:36:48.320Z,19.02
2018-01-12T05:39:15.790Z,18.45
2018-01-12T05:41:44.026Z,20.30
2018-01-12T05:44:11.518Z,19.37
2018-01-12T05:46:39.043Z,19.08
2018-01-12T05:49:06.500Z,17.15
2018-01-12T05:51:33.972Z,20.58
2018-01-12T05:54:01.430Z,20.15
2018-01-12T05:56:28.907Z,19.83
2018-01-12T05:58:57.135Z,20.70
2018-01-12T06:01:36.414Z,21.12
2018-01-12T06:04:16.580Z,18.77
2018-01-12T06:06:44.818Z,20.42
2018-01-12T06:09:12.281Z,19.67
2018-01-12T06:11:39.751Z,19.70
2018-01-12T06:14:07.222Z,20.17
2018-01-12T06:16:35.459Z,19.98
2018-01-12T06:19:02.951Z,18.48
2018-01-12T06:21:30.408Z,20.45
2018-01-12T06:23:58.748Z,21.15
2018-01-12T06:26:26.212Z,19.15
2018-01-12T06:28:53.674Z,19.73
2018-01-12T06:31:21.144Z,20.08
2018-01-12T06:33:48.602Z,20.35
2018-01-12T06:36:16.070Z,19.15
2018-01-12T06:38:44.307Z,19.58
2018-01-12T06:41:11.779Z,17.65
2018-01-12T06:43:39.243Z,16.15
2018-01-12T06:46:06.711Z,17.45
2018-01-12T06:48:34.170Z,15.88
2018-01-12T06:51:01.639Z,17.50
2018-01-12T06:53:29.889Z,16.45
2018-01-12T06:55:57.339Z,15.75
2018-01-12T06:58:24.801Z,16.02
2018-01-12T07:00:52.264Z,16.17
2018-01-12T07:03:19.732Z,16.90
2018-01-12T07:05:47.199Z,17.23
2018-01-12T07:08:15.497Z,15.25
2018-01-12T07:10:42.970Z,15.43
2018-01-12T07:13:10.449Z,16.08
2018-01-12T07:15:37.907Z,15.82
2018-01-12T07:18:05.379Z,15.70
2018-01-12T07:20:44.791Z,15.88
2018-01-12T07:23:24.336Z,13.75
2018-01-12T07:25:51.794Z,13.20
2018-01-12T07:28:19.267Z,15.45
2018-01-12T07:30:46.772Z,15.77
2018-01-12T07:33:15.004Z,14.65
2018-01-12T07:35:42.476Z,16.20
2018-01-12T07:38:09.943Z,15.65
2018-01-12T07:40:37.406Z,15.43
2018-01-12T07:43:05.647Z,14.48
2018-01-12T07:45:33.131Z,14.50
2018-01-12T07:48:00.603Z,15.85
2018-01-12T07:50:28.835Z,13.23
2018-01-12T07:55:53.586Z,13.40
2018-01-12T07:58:21.061Z,12.73
2018-01-12T08:00:55.026Z,14.27
2018-01-12T08:03:22.490Z,12.95
2018-01-12T08:05:49.960Z,13.62
2018-01-12T08:08:17.422Z,13.30
2018-01-12T08:10:45.655Z,13.35
2018-01-12T08:13:13.131Z,13.43
2018-01-12T08:15:40.595Z,14.20
2018-01-12T08:18:08.072Z,13.05
2018-01-12T08:20:35.526Z,13.23
2018-01-12T08:23:02.999Z,13.30
2018-01-12T08:25:31.223Z,12.15
2018-01-12T08:27:58.694Z,15.15
2018-01-12T08:30:26.160Z,15.35
2018-01-12T08:32:53.654Z,12.73
2018-01-12T08:35:21.877Z,13.75
2018-01-12T08:37:49.355Z,13.70
2018-01-12T08:40:16.820Z,13.32
2018-01-12T08:42:44.318Z,13.35
2018-01-12T08:45:11.778Z,13.68
2018-01-12T08:47:39.260Z,13.40
2018-01-12T08:50:06.718Z,13.45
2018-01-12T08:52:34.195Z,12.85
2018-01-12T08:55:01.699Z,11.65
2018-01-12T08:57:29.171Z,13.10
2018-01-12T08:59:56.679Z,14.40
2018-01-12T09:02:24.123Z,13.62
2018-01-12T09:04:51.591Z,13.25
2018-01-12T09:07:19.069Z,15.13
2018-01-12T09:09:47.307Z,13.95
2018-01-12T09:12:14.771Z,15.35
2018-01-12T09:14:49.049Z,15.07
2018-01-12T09:17:28.479Z,15.05
2018-01-12T09:20:07.918Z,14.68
2018-01-12T09:22:45.290Z,15.73
2018-01-12T09:25:26.078Z,14.00
2018-01-12T09:27:53.554Z,14.15
2018-01-12T09:30:21.018Z,12.88
2018-01-12T09:32:49.294Z,13.62
2018-01-12T09:35:16.759Z,14.15
2018-01-12T09:37:44.221Z,14.73
2018-01-12T09:40:27.586Z,14.68
2018-01-12T09:42:55.063Z,13.60
2018-01-12T09:45:23.296Z,13.57
2018-01-12T09:48:02.794Z,12.35
2018-01-12T09:50:30.265Z,13.13
2018-01-12T09:52:57.732Z,15.00
2018-01-12T09:55:25.207Z,14.05
2018-01-12T09:57:52.675Z,13.88
2018-01-12T10:00:26.873Z,14.35
2018-01-12T10:02:54.336Z,14.10
2018-01-12T10:05:21.819Z,14.98
2018-01-12T10:07:50.207Z,14.52
2018-01-12T10:10:17.687Z,15.23
2018-01-12T10:12:45.914Z,15.73
2018-01-12T10:15:13.393Z,13.50
2018-01-12T10:17:40.867Z,14.95
2018-01-12T10:20:15.003Z,13.60
2018-01-12T10:22:42.587Z,16.12
2018-01-12T10:25:10.048Z,13.65
2018-01-12T10:27:37.510Z,13.35
2018-01-12T10:30:16.922Z,15.05
2018-01-12T10:32:44.382Z,13.40
2018-01-12T10:35:21.807Z,15.07
2018-01-12T10:37:49.264Z,12.75
2018-01-12T10:40:28.610Z,13.70
2018-01-12T10:42:56.087Z,14.40
2018-01-12T10:45:24.320Z,13.27
2018-01-12T10:47:51.817Z,13.80
2018-01-12T10:50:29.967Z,14.55
2018-01-12T10:52:57.442Z,14.35
2018-01-12T10:55:24.905Z,13.85
2018-01-12T10:57:52.373Z,13.07
2018-01-12T11:00:30.880Z,14.98
2018-01-12T11:02:58.382Z,14.40
2018-01-12T11:05:26.608Z,14.20
2018-01-12T11:07:54.075Z,14.50
2018-01-12T11:10:21.534Z,14.13
2018-01-12T11:12:49.015Z,13.13
2018-01-12T11:15:16.474Z,13.18
2018-01-12T11:17:43.950Z,14.13
2018-01-12T11:20:12.200Z,14.32
2018-01-12T11:22:39.667Z,15.18
2018-01-12T11:25:07.150Z,13.60
2018-01-12T11:27:34.627Z,14.95
2018-01-12T11:30:02.094Z,14.30
2018-01-12T11:32:29.551Z,13.73
2018-01-12T11:34:57.031Z,15.82
2018-01-12T11:37:24.495Z,14.65
2018-01-12T11:39:51.971Z,14.10
2018-01-12T11:42:20.194Z,13.77
2018-01-12T11:44:47.659Z,14.80
2018-01-12T11:47:15.122Z,13.57
2018-01-12T11:49:42.590Z,14.75
2018-01-12T11:52:10.083Z,13.40
2018-01-12T11:54:38.314Z,13.85
2018-01-12T11:57:05.794Z,15.00
2018-01-12T11:59:33.258Z,13.77
2018-01-12T12:02:00.722Z,15.23
2018-01-12T12:04:28.191Z,13.95
2018-01-12T12:06:56.419Z,15.15
2018-01-12T12:09:23.894Z,14.90
2018-01-12T12:11:51.373Z,16.08
2018-01-12T12:14:18.858Z,14.40
2018-01-12T12:16:46.314Z,15.43
2018-01-12T12:19:13.780Z,15.15
2018-01-12T12:21:41.235Z,14.80
2018-01-12T12:24:08.736Z,12.70
2018-01-12T12:26:36.194Z,14.85
2018-01-12T12:29:03.672Z,14.77
2018-01-12T12:31:31.148Z,14.00
2018-01-12T12:33:59.378Z,16.17
2018-01-12T12:36:26.838Z,16.85
2018-01-12T12:38:54.310Z,13.90
2018-01-12T12:41:21.775Z,15.15
2018-01-12T12:43:49.248Z,15.38
2018-01-12T12:46:17.474Z,14.70
2018-01-12T12:48:44.942Z,16.08
2018-01-12T12:51:12.404Z,15.27
2018-01-12T12:53:39.872Z,16.65
2018-01-12T12:56:07.340Z,15.40
2018-01-12T12:58:34.801Z,16.85
2018-01-12T13:01:03.076Z,15.80
2018-01-12T13:03:30.535Z,17.42
2018-01-12T13:05:58.775Z,15.15
2018-01-12T13:08:26.259Z,16.50
2018-01-12T13:10:53.729Z,15.30
2018-01-12T13:13:21.963Z,16.55
2018-01-12T13:15:49.426Z,17.30
2018-01-12T13:18:16.906Z,16.87
2018-01-12T13:20:44.390Z,16.30
2018-01-12T13:23:12.610Z,16.08
2018-01-12T13:25:40.132Z,15.02
2018-01-12T13:28:07.590Z,14.82
2018-01-12T13:30:35.699Z,13.68
2018-01-12T13:33:03.356Z,15.55
2018-01-12T13:35:31.026Z,17.17
2018-01-12T13:37:58.698Z,18.15
2018-01-12T13:40:26.370Z,17.10
2018-01-12T13:42:54.741Z,19.67
2018-01-12T13:45:24.187Z,17.90
2018-01-12T13:47:51.888Z,19.25
2018-01-12T13:50:19.550Z,19.50
2018-01-12T13:52:48.514Z,19.50
2018-01-12T13:55:16.143Z,17.70
2018-01-12T13:57:44.632Z,20.48
2018-01-12T14:00:13.070Z,17.58
2018-01-12T14:02:40.690Z,18.27
2018-01-12T14:05:09.113Z,20.40
2018-01-12T14:07:36.578Z,17.92
2018-01-12T14:10:04.039Z,18.80
2018-01-12T14:12:31.671Z,19.45
2018-01-12T14:14:59.441Z,19.12
2018-01-12T14:17:27.132Z,18.27
2018-01-12T14:19:54.748Z,18.65
2018-01-12T14:22:22.240Z,17.65
2018-01-12T14:24:49.725Z,17.15
2018-01-12T14:27:17.189Z,17.80
2018-01-12T14:29:44.663Z,17.52
2018-01-12T14:32:12.938Z,17.83
2018-01-12T14:34:41.171Z,17.95
2018-01-12T14:37:08.645Z,17.20
2018-01-12T14:39:36.120Z,19.95
2018-01-12T14:42:04.350Z,18.90
2018-01-12T14:44:31.882Z,18.30
2018-01-12T14:46:59.358Z,18.42
2018-01-12T14:49:26.854Z,18.45
2018-01-12T14:51:59.314Z,20.20
2018-01-12T14:54:29.415Z,19.30
2018-01-12T14:57:09.799Z,20.10
2018-01-12T14:59:37.295Z,19.52
2018-01-12T15:02:05.557Z,18.12
2018-01-12T15:04:33.028Z,19.10
2018-01-12T15:07:01.273Z,21.10
2018-01-12T15:09:28.894Z,18.65
2018-01-12T15:11:56.372Z,19.65
2018-01-12T15:14:23.839Z,19.17
2018-01-12T15:16:52.332Z,17.48
2018-01-12T15:19:20.876Z,20.27
2018-01-12T15:21:51.208Z,17.75
2018-01-12T15:24:19.068Z,20.92
2018-01-12T15:26:46.721Z,18.90
2018-01-12T15:29:17.266Z,20.37
2018-01-12T15:31:44.924Z,21.37
2018-01-12T15:34:15.174Z,20.00
2018-01-12T15:36:42.844Z,19.95
2018-01-12T15:39:15.275Z,20.77
2018-01-12T15:41:44.360Z,21.65
2018-01-12T15:44:11.844Z,21.48
2018-01-12T15:46:39.315Z,23.33
2018-01-12T15:49:06.792Z,23.50
2018-01-12T15:51:34.286Z,24.23
2018-01-12T15:54:01.760Z,23.33
2018-01-12T15:56:29.222Z,25.08
2018-01-12T15:58:56.691Z,23.92
2018-01-12T16:01:24.167Z,23.85
2018-01-12T16:03:51.634Z,26.35
2018-01-12T16:06:19.103Z,25.70
2018-01-12T16:08:46.568Z,24.58
2018-01-12T16:11:14.034Z,24.50
2018-01-12T16:13:42.258Z,26.75
2018-01-12T16:16:09.741Z,25.27
2018-01-12T16:18:37.217Z,25.90
2018-01-12T16:21:05.479Z,25.17
2018-01-12T16:23:32.974Z,26.45
2018-01-12T16:26:00.502Z,25.42
2018-01-12T16:28:27.965Z,26.65
2018-01-12T16:30:55.435Z,26.77
2018-01-12T16:33:23.674Z,25.42
2018-01-12T16:35:51.149Z,25.08
2018-01-12T16:38:18.604Z,27.30
2018-01-12T16:40:46.082Z,24.95
2018-01-12T16:43:14.309Z,23.27
2018-01-12T16:45:41.774Z,23.10
2018-01-12T16:48:09.248Z,23.27
2018-01-12T16:50:36.716Z,22.80
2018-01-12T16:53:04.187Z,23.00
2018-01-12T16:55:32.424Z,21.15
2018-01-12T16:57:59.889Z,23.42
2018-01-12T17:00:27.363Z,20.60
2018-01-12T17:02:54.823Z,22.62
2018-01-12T17:05:22.353Z,19.42
2018-01-12T17:07:49.776Z,21.02
2018-01-12T17:10:17.238Z,19.80
2018-01-12T17:12:44.702Z,18.58
2018-01-12T17:15:12.204Z,20.05
2018-01-12T17:17:39.671Z,20.35
2018-01-12T17:20:07.144Z,17.48
2018-01-12T17:22:35.369Z,17.45
2018-01-12T17:25:02.835Z,20.27
2018-01-12T17:27:30.313Z,20.20
2018-01-12T17:29:57.795Z,20.33
2018-01-12T17:32:26.019Z,20.30
2018-01-12T17:34:53.489Z,19.73
2018-01-12T17:37:20.972Z,18.50
2018-01-12T17:39:48.439Z,19.77
2018-01-12T17:42:16.675Z,20.48
2018-01-12T17:44:44.139Z,20.08
2018-01-12T17:47:11.619Z,18.48
2018-01-12T17:49:39.078Z,19.75
2018-01-12T17:52:07.316Z,18.83
2018-01-12T17:54:34.791Z,20.30
2018-01-12T17:57:02.263Z,18.37
2018-01-12T17:59:29.808Z,20.50
2018-01-12T18:01:57.302Z,19.37
2018-01-12T18:04:25.534Z,18.60
2018-01-12T18:06:53.011Z,18.55
2018-01-12T18:09:20.463Z,20.88
2018-01-12T18:11:47.940Z,20.83
2018-01-12T18:14:16.166Z,19.98
2018-01-12T18:16:43.640Z,20.45
2018-01-12T18:19:11.094Z,18.00
2018-01-12T18:21:38.611Z,20.20
2018-01-12T18:24:06.085Z,21.92
2018-01-12T18:26:33.551Z,19.62
2018-01-12T18:29:01.027Z,17.83
2018-01-12T18:31:28.494Z,19.00
2018-01-12T18:33:55.963Z,18.55
2018-01-12T18:36:23.475Z,17.33
2018-01-12T18:38:50.930Z,20.98
2018-01-12T18:41:18.408Z,19.25
2018-01-12T18:43:45.881Z,18.92
2018-01-12T18:46:13.357Z,19.23
2018-01-12T18:48:40.839Z,18.52
2018-01-12T18:51:08.315Z,17.30
2018-01-12T18:53:35.775Z,19.25
2018-01-12T18:56:03.246Z,17.15
2018-01-12T18:58:30.713Z,18.02
2018-01-12T19:00:58.185Z,19.92
2018-01-12T19:03:25.643Z,18.40
2018-01-12T19:05:53.111Z,19.33
2018-01-12T19:08:20.580Z,15.55
2018-01-12T19:10:48.853Z,16.08
2018-01-12T19:13:16.274Z,17.37
2018-01-12T19:15:43.747Z,19.58
2018-01-12T19:18:11.306Z,16.02
2018-01-12T19:20:38.771Z,18.73
2018-01-12T19:23:06.243Z,15.00
2018-01-12T19:25:34.513Z,15.98
2018-01-12T19:28:01.974Z,15.52
2018-01-12T19:30:30.207Z,15.95
2018-01-12T19:32:57.721Z,17.65
2018-01-12T19:35:25.948Z,17.48
2018-01-12T19:37:53.418Z,17.02
2018-01-12T19:40:20.886Z,17.65
2018-01-12T19:42:48.358Z,18.17
2018-01-12T19:45:15.905Z,17.05
2018-01-12T19:47:43.347Z,16.23
2018-01-12T19:50:10.834Z,14.07
2018-01-12T19:52:39.070Z,13.50
2018-01-12T19:55:06.535Z,17.05
2018-01-12T19:57:33.998Z,15.93
2018-01-12T20:00:01.458Z,19.00
2018-01-12T20:02:28.941Z,17.23
2018-01-12T20:04:57.209Z,16.60
2018-01-12T20:07:24.724Z,17.17
2018-01-12T20:09:52.229Z,16.12
2018-01-12T20:12:19.690Z,15.30
2018-01-12T20:14:47.922Z,15.57
2018-01-12T20:17:15.386Z,16.30
2018-01-12T20:19:42.899Z,18.12
2018-01-12T20:22:11.125Z,15.98
2018-01-12T20:24:38.633Z,18.30
2018-01-12T20:27:06.854Z,16.58
2018-01-12T20:29:34.369Z,17.40
2018-01-12T20:32:02.591Z,17.30
2018-01-12T20:34:30.046Z,16.95
2018-01-12T20:36:57.511Z,17.45
2018-01-12T20:39:24.971Z,17.05
2018-01-12T20:41:52.441Z,19.62
2018-01-12T20:44:19.949Z,17.83
2018-01-12T20:46:47.415Z,20.60
2018-01-12T20:49:14.899Z,18.77
2018-01-12T20:51:42.376Z,18.02
2018-01-12T20:54:09.858Z,18.85
2018-01-12T20:56:38.160Z,18.40
2018-01-12T20:59:05.670Z,19.48
2018-01-12T21:01:33.145Z,20.60
2018-01-12T21:04:01.409Z,20.02
2018-01-12T21:06:28.895Z,20.92
2018-01-12T21:08:56.438Z,21.70
2018-01-12T21:11:23.982Z,21.60
2018-01-12T21:13:51.538Z,21.20
2018-01-12T21:16:19.059Z,21.05
2018-01-12T21:18:46.546Z,21.75
2018-01-12T21:21:14.000Z,22.15
2018-01-12T21:23:41.470Z,20.55
2018-01-12T21:26:09.015Z,19.77
2018-01-12T21:28:36.506Z,21.40
2018-01-12T21:31:04.010Z,21.62
2018-01-12T21:33:31.540Z,19.90
2018-01-12T21:35:59.803Z,20.98
2018-01-12T21:38:27.279Z,19.12
2018-01-12T21:40:55.532Z,21.08
2018-01-12T21:43:23.079Z,22.60
2018-01-12T21:45:50.599Z,21.33
2018-01-12T21:48:18.114Z,21.12
2018-01-12T21:50:45.617Z,18.80
2018-01-12T21:53:13.102Z,20.37
2018-01-12T21:55:40.640Z,20.60
2018-01-12T21:58:08.158Z,20.20
2018-01-12T22:00:36.392Z,18.70
2018-01-12T22:03:03.864Z,17.55
2018-01-12T22:05:31.318Z,18.15
2018-01-12T22:07:58.785Z,17.58
2018-01-12T22:10:26.250Z,18.85
2018-01-12T22:12:53.765Z,20.02
2018-01-12T22:15:21.363Z,20.55
2018-01-12T22:17:48.853Z,20.52
2018-01-12T22:20:17.173Z,21.20
2018-01-12T22:22:44.650Z,18.80
2018-01-12T22:25:12.137Z,21.42
2018-01-12T22:27:39.632Z,20.10
2018-01-12T22:30:07.194Z,20.48
2018-01-12T22:32:34.750Z,20.10
2018-01-12T22:35:02.252Z,20.55
2018-01-12T22:37:29.747Z,19.33
2018-01-12T22:39:58.007Z,20.30
2018-01-12T22:42:25.531Z,20.40
2018-01-12T22:44:53.037Z,20.50
2018-01-12T22:47:21.273Z,20.20
2018-01-12T22:49:48.753Z,20.50
2018-01-12T22:52:16.222Z,21.92
2018-01-12T22:54:43.695Z,18.85
2018-01-12T22:57:12.042Z,22.75
2018-01-12T22:59:39.562Z,21.20
2018-01-12T23:02:07.092Z,21.25
2018-01-12T23:04:35.385Z,15.57
2018-01-12T23:07:03.706Z,18.62
2018-01-12T23:09:31.175Z,15.27
2018-01-12T23:11:58.662Z,17.87
2018-01-12T23:14:26.131Z,20.15
2018-01-12T23:16:54.361Z,20.23
2018-01-12T23:19:21.900Z,21.92
2018-01-12T23:21:49.367Z,16.80
2018-01-12T23:24:16.872Z,19.48
2018-01-12T23:26:44.481Z,20.05
2018-01-12T23:29:11.947Z,18.60
2018-01-12T23:31:39.472Z,21.70
2018-01-12T23:34:06.988Z,20.00
2018-01-12T23:36:34.491Z,19.73
2018-01-12T23:39:02.748Z,20.15
2018-01-12T23:41:30.975Z,18.12
2018-01-12T23:43:58.450Z,21.17
2018-01-12T23:46:25.967Z,18.02
2018-01-12T23:48:53.483Z,19.40
2018-01-12T23:51:22.497Z,20.73
2018-01-12T23:53:50.730Z,17.52
2018-01-12T23:56:18.238Z,19.27
2018-01-12T23:58:46.479Z,18.40
